createdAt,value
2023-01-17T00:00:11.451Z,4.8
2023-01-17T00:02:38.287Z,4.7
2023-01-17T00:05:05.110Z,4.7
2023-01-17T00:07:31.893Z,4.7
2023-01-17T00:09:58.798Z,4.7
2023-01-17T00:12:25.612Z,4.6
2023-01-17T00:14:52.473Z,4.6
2023-01-17T00:17:19.244Z,4.6
2023-01-17T00:19:46.089Z,4.6
2023-01-17T00:22:12.919Z,4.6
2023-01-17T00:24:39.852Z,4.5
2023-01-17T00:27:06.795Z,4.5
2023-01-17T00:29:32.057Z,4.5
2023-01-17T00:31:58.876Z,4.4
2023-01-17T00:34:25.738Z,4.4
2023-01-17T00:36:52.537Z,4.4
2023-01-17T00:39:19.388Z,4.3
2023-01-17T00:41:46.225Z,4.3
2023-01-17T00:44:13.104Z,4.3
2023-01-17T00:46:39.904Z,4.3
2023-01-17T00:49:06.754Z,4.3
2023-01-17T00:51:33.600Z,4.2
2023-01-17T00:54:00.425Z,4.2
2023-01-17T00:56:27.259Z,4.2
2023-01-17T00:58:54.107Z,4.2
2023-01-17T01:01:19.517Z,4.2
2023-01-17T01:03:46.360Z,4.2
2023-01-17T01:06:13.228Z,4.2
2023-01-17T01:08:40.040Z,4.2
2023-01-17T01:11:06.886Z,4.2
2023-01-17T01:13:33.721Z,4.2
2023-01-17T01:16:00.566Z,4.2
2023-01-17T01:18:27.425Z,4.2
2023-01-17T01:20:54.249Z,4.2
2023-01-17T01:23:21.133Z,4.2
2023-01-17T01:25:47.930Z,4.2
2023-01-17T01:28:14.767Z,4.2
2023-01-17T01:30:41.612Z,4.1
2023-01-17T01:33:07.015Z,4.1
2023-01-17T01:35:33.868Z,4.1
2023-01-17T01:38:00.751Z,4.1
2023-01-17T01:40:27.544Z,4.1
2023-01-17T01:42:54.384Z,4.1
2023-01-17T01:45:21.241Z,4.1
2023-01-17T01:47:48.068Z,4.1
2023-01-17T01:50:14.934Z,4.1
2023-01-17T01:52:41.743Z,4.1
2023-01-17T01:55:08.591Z,4.1
2023-01-17T02:00:02.263Z,4.1
2023-01-17T02:02:29.115Z,4.1
2023-01-17T02:04:54.521Z,4.1
2023-01-17T02:07:21.375Z,4.1
2023-01-17T02:09:48.196Z,4.1
2023-01-17T02:12:15.066Z,4
2023-01-17T02:14:41.885Z,4
2023-01-17T02:19:35.569Z,4
2023-01-17T02:22:02.433Z,4
2023-01-17T02:24:29.259Z,4
2023-01-17T02:26:56.077Z,4
2023-01-17T02:29:22.920Z,4
2023-01-17T02:31:49.765Z,4
2023-01-17T02:36:43.459Z,4
2023-01-17T02:39:08.912Z,4
2023-01-17T02:41:34.329Z,3.9
2023-01-17T02:44:01.199Z,3.9
2023-01-17T02:46:28.003Z,3.9
2023-01-17T02:48:54.853Z,3.9
2023-01-17T02:51:21.691Z,3.9
2023-01-17T02:53:48.531Z,3.9
2023-01-17T02:56:15.150Z,3.9
2023-01-17T02:58:42.005Z,3.9
2023-01-17T03:01:08.820Z,3.8
2023-01-17T03:03:35.673Z,3.8
2023-01-17T03:06:02.556Z,3.8
2023-01-17T03:10:56.171Z,3.8
2023-01-17T03:13:22.971Z,3.8
2023-01-17T03:15:49.808Z,3.8
2023-01-17T03:18:16.620Z,3.8
2023-01-17T03:20:42.041Z,3.8
2023-01-17T03:23:08.877Z,3.8
2023-01-17T03:25:35.708Z,3.8
2023-01-17T03:28:02.549Z,3.8
2023-01-17T03:30:28.027Z,3.8
2023-01-17T03:32:53.483Z,3.8
2023-01-17T03:35:18.893Z,3.8
2023-01-17T03:37:45.730Z,3.8
2023-01-17T03:40:12.609Z,3.8
2023-01-17T03:42:39.425Z,3.8
2023-01-17T03:45:06.261Z,3.8
2023-01-17T03:49:59.939Z,3.8
2023-01-17T03:52:26.897Z,3.7
2023-01-17T03:54:53.627Z,3.7
2023-01-17T03:57:20.458Z,3.7
2023-01-17T03:59:47.302Z,3.7
2023-01-17T04:02:14.143Z,3.7
2023-01-17T04:04:40.973Z,3.7
2023-01-17T04:07:06.392Z,3.7
2023-01-17T04:09:33.228Z,3.7
2023-01-17T04:12:00.227Z,3.7
2023-01-17T04:14:26.919Z,3.7
2023-01-17T04:16:53.746Z,3.7
2023-01-17T04:19:20.599Z,3.7
2023-01-17T04:21:47.434Z,3.7
2023-01-17T04:24:14.302Z,3.7
2023-01-17T04:26:41.128Z,3.7
2023-01-17T04:29:07.993Z,3.6
2023-01-17T04:31:34.872Z,3.6
2023-01-17T04:34:01.642Z,3.6
2023-01-17T04:36:28.548Z,3.6
2023-01-17T04:38:53.948Z,3.5
2023-01-17T04:41:20.745Z,3.5
2023-01-17T04:43:47.575Z,3.5
2023-01-17T04:46:14.431Z,3.5
2023-01-17T04:48:41.280Z,3.5
2023-01-17T04:51:08.123Z,3.5
2023-01-17T04:53:34.940Z,3.5
2023-01-17T04:56:01.791Z,3.5
2023-01-17T04:58:28.625Z,3.5
2023-01-17T05:00:55.486Z,3.5
2023-01-17T05:03:22.302Z,3.5
2023-01-17T05:05:49.142Z,3.4
2023-01-17T05:08:15.996Z,3.4
2023-01-17T05:10:41.398Z,3.4
2023-01-17T05:13:08.239Z,3.4
2023-01-17T05:15:35.081Z,3.4
2023-01-17T05:18:01.937Z,3.4
2023-01-17T05:20:28.765Z,3.4
2023-01-17T05:22:55.609Z,3.4
2023-01-17T05:25:22.431Z,3.4
2023-01-17T05:27:49.281Z,3.4
2023-01-17T05:30:16.127Z,3.4
2023-01-17T05:32:42.958Z,3.4
2023-01-17T05:35:09.851Z,3.3
2023-01-17T05:37:36.649Z,3.3
2023-01-17T05:40:03.480Z,3.3
2023-01-17T05:42:30.325Z,3.3
2023-01-17T05:44:55.739Z,3.3
2023-01-17T05:47:22.577Z,3.2
2023-01-17T05:49:49.434Z,3.2
2023-01-17T05:52:16.262Z,3.2
2023-01-17T05:54:43.095Z,3.1
2023-01-17T05:57:09.947Z,3.1
2023-01-17T05:59:36.779Z,3
2023-01-17T06:02:03.619Z,3
2023-01-17T06:04:30.475Z,3
2023-01-17T06:06:57.313Z,3
2023-01-17T06:09:24.149Z,2.9
2023-01-17T06:16:44.665Z,2.8
2023-01-17T06:19:11.529Z,2.8
2023-01-17T06:21:36.927Z,2.8
2023-01-17T06:24:03.756Z,2.8
2023-01-17T06:26:30.616Z,2.8
2023-01-17T06:28:57.529Z,2.8
2023-01-17T06:31:24.285Z,2.8
2023-01-17T06:33:51.127Z,2.8
2023-01-17T06:38:44.813Z,2.8
2023-01-17T06:41:10.339Z,2.8
2023-01-17T06:43:35.689Z,2.7
2023-01-17T06:46:02.607Z,2.7
2023-01-17T06:48:29.367Z,2.7
2023-01-17T06:50:56.206Z,2.6
2023-01-17T06:53:23.101Z,2.6
2023-01-17T06:55:49.893Z,2.6
2023-01-17T06:58:16.722Z,2.6
2023-01-17T07:00:43.649Z,2.6
2023-01-17T07:03:10.474Z,2.6
2023-01-17T07:05:37.255Z,2.6
2023-01-17T07:08:02.698Z,2.6
2023-01-17T07:10:29.584Z,2.6
2023-01-17T07:12:55.034Z,2.5
2023-01-17T07:15:21.797Z,2.5
2023-01-17T07:17:48.664Z,2.6
2023-01-17T07:20:15.556Z,2.6
2023-01-17T07:22:42.401Z,2.6
2023-01-17T07:25:09.185Z,2.6
2023-01-17T07:27:36.000Z,2.6
2023-01-17T07:30:02.841Z,2.6
2023-01-17T07:34:56.594Z,2.5
2023-01-17T07:37:23.401Z,2.4
2023-01-17T07:39:50.202Z,2.4
2023-01-17T07:42:17.059Z,2.4
2023-01-17T07:44:43.844Z,2.4
2023-01-17T07:47:10.704Z,2.5
2023-01-17T07:49:36.110Z,2.5
2023-01-17T07:52:02.945Z,2.5
2023-01-17T07:56:56.676Z,2.5
2023-01-17T07:59:22.096Z,2.6
2023-01-17T08:01:47.517Z,2.6
2023-01-17T08:04:14.423Z,2.5
2023-01-17T08:06:41.324Z,2.5
2023-01-17T08:09:08.029Z,2.4
2023-01-17T08:11:34.859Z,2.4
2023-01-17T08:14:01.727Z,2.4
2023-01-17T08:16:28.573Z,2.4
2023-01-17T08:18:55.491Z,2.5
2023-01-17T08:21:22.259Z,2.5
2023-01-17T08:23:49.217Z,2.5
2023-01-17T08:26:14.628Z,2.5
2023-01-17T08:28:40.038Z,2.5
2023-01-17T08:31:06.915Z,2.6
2023-01-17T08:33:33.629Z,2.5
2023-01-17T08:36:00.500Z,2.5
2023-01-17T08:38:27.422Z,2.5
2023-01-17T08:40:54.156Z,2.5
2023-01-17T08:43:20.981Z,2.6
2023-01-17T08:45:47.829Z,2.6
2023-01-17T08:48:14.669Z,2.6
2023-01-17T08:50:41.507Z,2.6
2023-01-17T08:53:08.382Z,2.7
2023-01-17T08:55:35.188Z,2.7
2023-01-17T08:58:02.099Z,2.7
2023-01-17T09:00:28.869Z,2.7
2023-01-17T09:02:55.709Z,2.7
2023-01-17T09:05:21.116Z,2.8
2023-01-17T09:07:47.961Z,2.8
2023-01-17T09:10:14.829Z,2.8
2023-01-17T09:12:41.643Z,2.8
2023-01-17T09:15:08.485Z,2.9
2023-01-17T09:17:35.336Z,2.9
2023-01-17T09:20:02.246Z,2.8
2023-01-17T09:22:29.013Z,2.8
2023-01-17T09:24:55.851Z,2.8
2023-01-17T09:27:22.763Z,2.8
2023-01-17T09:29:49.522Z,2.8
2023-01-17T09:32:16.375Z,2.8
2023-01-17T09:34:43.377Z,2.9
2023-01-17T09:37:10.066Z,2.9
2023-01-17T09:39:35.462Z,2.9
2023-01-17T09:42:02.386Z,3
2023-01-17T09:44:29.217Z,3
2023-01-17T09:46:56.128Z,3
2023-01-17T09:49:22.827Z,3
2023-01-17T09:51:49.669Z,3.1
2023-01-17T09:54:16.523Z,3.1
2023-01-17T09:56:43.345Z,3.1
2023-01-17T09:59:10.206Z,3.2
2023-01-17T10:01:37.060Z,3.2
2023-01-17T10:04:03.945Z,3.2
2023-01-17T10:06:30.749Z,3.2
2023-01-17T10:08:57.684Z,3.3
2023-01-17T10:11:23.089Z,3.3
2023-01-17T10:13:49.930Z,3.4
2023-01-17T10:16:16.803Z,3.4
2023-01-17T10:18:43.497Z,3.5
2023-01-17T10:21:10.371Z,3.5
2023-01-17T10:23:37.254Z,3.5
2023-01-17T10:26:04.004Z,3.6
2023-01-17T10:28:31.062Z,3.6
2023-01-17T10:30:57.814Z,3.7
2023-01-17T10:33:24.752Z,3.8
2023-01-17T10:35:51.578Z,3.8
2023-01-17T10:38:18.484Z,3.8
2023-01-17T10:40:45.204Z,3.8
2023-01-17T10:43:10.625Z,3.9
2023-01-17T10:45:37.416Z,3.9
2023-01-17T10:48:04.210Z,3.9
2023-01-17T10:50:31.063Z,3.9
2023-01-17T10:52:57.967Z,3.9
2023-01-17T10:55:24.753Z,4
2023-01-17T10:57:51.518Z,4.1
2023-01-17T11:00:18.404Z,4.2
2023-01-17T11:02:45.206Z,4.3
2023-01-17T11:05:12.249Z,4.4
2023-01-17T11:07:38.943Z,4.5
2023-01-17T11:10:05.713Z,4.5
2023-01-17T11:12:32.641Z,4.6
2023-01-17T11:14:58.046Z,4.6
2023-01-17T11:17:24.807Z,4.7
2023-01-17T11:19:51.727Z,4.8
2023-01-17T11:22:18.649Z,4.8
2023-01-17T11:24:45.414Z,4.9
2023-01-17T11:27:12.174Z,4.9
2023-01-17T11:29:39.096Z,5
2023-01-17T11:32:05.858Z,5
2023-01-17T11:34:32.842Z,5
2023-01-17T11:36:59.693Z,5.1
2023-01-17T11:39:26.475Z,5.2
2023-01-17T11:41:53.256Z,5.2
2023-01-17T11:44:18.625Z,5.3
2023-01-17T11:46:45.524Z,5.3
2023-01-17T11:49:12.387Z,5.3
2023-01-17T11:51:39.218Z,5.4
2023-01-17T11:54:05.988Z,5.4
2023-01-17T11:56:32.887Z,5.4
2023-01-17T11:58:59.682Z,5.5
2023-01-17T12:01:26.520Z,5.5
2023-01-17T12:03:53.343Z,5.5
2023-01-17T12:08:47.215Z,5.5
2023-01-17T12:11:13.902Z,5.5
2023-01-17T12:13:40.791Z,5.5
2023-01-17T12:16:07.603Z,5.5
2023-01-17T12:18:34.393Z,5.5
2023-01-17T12:21:01.286Z,5.5
2023-01-17T12:23:26.805Z,5.5
2023-01-17T12:25:53.481Z,5.5
2023-01-17T12:28:20.536Z,5.5
2023-01-17T12:30:47.343Z,5.5
2023-01-17T12:33:14.205Z,5.5
2023-01-17T12:35:41.023Z,5.6
2023-01-17T12:38:07.722Z,5.6
2023-01-17T12:40:34.938Z,5.6
2023-01-17T12:43:01.380Z,5.6
2023-01-17T12:45:28.227Z,5.6
2023-01-17T12:47:55.079Z,5.6
2023-01-17T12:50:21.933Z,5.6
2023-01-17T12:52:48.743Z,5.6
2023-01-17T12:55:15.648Z,5.6
2023-01-17T12:57:41.070Z,5.6
2023-01-17T13:00:07.887Z,5.6
2023-01-17T13:02:34.747Z,5.6
2023-01-17T13:05:01.556Z,5.6
2023-01-17T13:07:28.519Z,5.6
2023-01-17T13:09:55.436Z,5.6
2023-01-17T13:12:22.177Z,5.6
2023-01-17T13:14:48.922Z,5.6
2023-01-17T13:17:15.711Z,5.6
2023-01-17T13:19:42.603Z,5.6
2023-01-17T13:22:09.427Z,5.6
2023-01-17T13:24:36.305Z,5.7
2023-01-17T13:27:03.079Z,5.6
2023-01-17T13:29:29.972Z,5.7
2023-01-17T13:31:56.764Z,5.6
2023-01-17T13:34:22.266Z,5.6
2023-01-17T13:36:49.100Z,5.6
2023-01-17T13:39:15.876Z,5.6
2023-01-17T13:41:42.761Z,5.6
2023-01-17T13:44:09.641Z,5.6
2023-01-17T13:46:36.387Z,5.6
2023-01-17T13:49:03.226Z,5.5
2023-01-17T13:51:30.064Z,5.5
2023-01-17T13:53:56.892Z,5.5
2023-01-17T13:56:23.817Z,5.5
2023-01-17T13:58:50.582Z,5.5
2023-01-17T14:01:17.428Z,5.5
2023-01-17T14:03:44.250Z,5.5
2023-01-17T14:06:11.096Z,5.5
2023-01-17T14:08:36.516Z,5.5
2023-01-17T14:11:03.359Z,5.5
2023-01-17T14:13:30.237Z,5.5
2023-01-17T14:15:57.046Z,5.4
2023-01-17T14:18:24.011Z,5.4
2023-01-17T14:20:50.739Z,5.4
2023-01-17T14:23:17.555Z,5.4
2023-01-17T14:25:44.392Z,5.4
2023-01-17T14:28:11.234Z,5.4
2023-01-17T14:30:38.275Z,5.4
2023-01-17T14:33:04.920Z,5.4
2023-01-17T14:35:31.761Z,5.3
2023-01-17T14:37:58.606Z,5.3
2023-01-17T14:40:25.418Z,5.3
2023-01-17T14:42:50.817Z,5.3
2023-01-17T14:45:17.698Z,5.2
2023-01-17T14:47:44.505Z,5.2
2023-01-17T14:50:11.355Z,5.2
2023-01-17T14:52:38.196Z,5.2
2023-01-17T14:55:05.040Z,5.1
2023-01-17T14:57:31.895Z,5.1
2023-01-17T14:59:58.706Z,5.1
2023-01-17T15:02:25.620Z,5.1
2023-01-17T15:04:52.412Z,5
2023-01-17T15:07:19.232Z,5
2023-01-17T15:09:46.066Z,5
2023-01-17T15:12:12.903Z,5
2023-01-17T15:14:38.416Z,4.9
2023-01-17T15:17:05.167Z,4.9
2023-01-17T15:19:32.023Z,4.9
2023-01-17T15:21:58.855Z,4.8
2023-01-17T15:24:25.692Z,4.8
2023-01-17T15:26:52.524Z,4.8
2023-01-17T15:29:19.391Z,4.8
2023-01-17T15:31:46.219Z,4.8
2023-01-17T15:34:13.040Z,4.7
2023-01-17T15:36:39.903Z,4.7
2023-01-17T15:39:06.736Z,4.7
2023-01-17T15:41:33.573Z,4.7
2023-01-17T15:44:00.415Z,4.7
2023-01-17T15:46:27.269Z,4.7
2023-01-17T15:48:52.710Z,4.6
2023-01-17T15:51:19.514Z,4.6
2023-01-17T15:53:46.351Z,4.6
2023-01-17T15:56:13.199Z,4.6
2023-01-17T15:58:40.040Z,4.6
2023-01-17T16:01:06.872Z,4.5
2023-01-17T16:03:33.715Z,4.5
2023-01-17T16:06:00.551Z,4.5
2023-01-17T16:08:27.384Z,4.4
2023-01-17T16:10:54.229Z,4.4
2023-01-17T16:13:21.078Z,4.4
2023-01-17T16:15:47.926Z,4.5
2023-01-17T16:18:14.771Z,4.5
2023-01-17T16:20:40.181Z,4.5
2023-01-17T16:23:07.020Z,4.5
2023-01-17T16:25:33.849Z,4.5
2023-01-17T16:28:00.692Z,4.5
2023-01-17T16:30:27.533Z,4.4
2023-01-17T16:32:54.378Z,4.4
2023-01-17T16:35:21.219Z,4.4
2023-01-17T16:37:48.075Z,4.4
2023-01-17T16:40:14.884Z,4.5
2023-01-17T16:42:41.738Z,4.5
2023-01-17T16:45:08.574Z,4.5
2023-01-17T16:47:35.418Z,4.5
2023-01-17T16:50:02.245Z,4.5
2023-01-17T16:52:29.117Z,4.5
2023-01-17T16:54:54.512Z,4.5
2023-01-17T16:57:21.350Z,4.5
2023-01-17T16:59:48.200Z,4.5
2023-01-17T17:02:15.033Z,4.5
2023-01-17T17:04:41.880Z,4.4
2023-01-17T17:07:08.708Z,4.4
2023-01-17T17:09:35.561Z,4.3
2023-01-17T17:12:02.427Z,4.3
2023-01-17T17:14:29.243Z,4.3
2023-01-17T17:16:56.092Z,4.3
2023-01-17T17:19:22.936Z,4.3
2023-01-17T17:21:49.787Z,4.2
2023-01-17T17:24:16.765Z,4.2
2023-01-17T17:26:42.092Z,4.2
2023-01-17T17:29:08.864Z,4.2
2023-01-17T17:31:35.763Z,4.1
2023-01-17T17:34:02.581Z,4.1
2023-01-17T17:36:29.426Z,4.1
2023-01-17T17:38:56.227Z,4.1
2023-01-17T17:41:23.075Z,4
2023-01-17T17:43:49.945Z,4
2023-01-17T17:46:16.745Z,4
2023-01-17T17:48:43.604Z,3.9
2023-01-17T17:51:10.465Z,3.8
2023-01-17T17:53:37.270Z,3.8
2023-01-17T17:56:04.111Z,3.8
2023-01-17T17:58:30.914Z,3.8
2023-01-17T18:00:56.337Z,3.8
2023-01-17T18:03:23.182Z,3.8
2023-01-17T18:05:50.010Z,3.9
2023-01-17T18:08:16.857Z,3.9
2023-01-17T18:10:43.700Z,3.9
2023-01-17T18:13:10.534Z,4
2023-01-17T18:15:37.507Z,4
2023-01-17T18:18:04.217Z,4
2023-01-17T18:20:31.059Z,4
2023-01-17T18:22:57.905Z,4
2023-01-17T18:25:24.800Z,4.1
2023-01-17T18:27:51.649Z,4.1
2023-01-17T18:30:18.421Z,4.1
2023-01-17T18:32:45.294Z,4.1
2023-01-17T18:35:10.681Z,4.1
2023-01-17T18:37:37.523Z,4.1
2023-01-17T18:40:04.360Z,4.1
2023-01-17T18:42:31.227Z,4.1
2023-01-17T18:44:58.098Z,4.1
2023-01-17T18:47:24.875Z,4.1
2023-01-17T18:49:51.764Z,4.1
2023-01-17T18:52:18.642Z,4
2023-01-17T18:54:45.471Z,4.1
2023-01-17T18:57:12.330Z,4
2023-01-17T18:59:39.073Z,4
2023-01-17T19:02:05.969Z,4
2023-01-17T19:04:32.860Z,4
2023-01-17T19:06:59.672Z,4
2023-01-17T19:09:26.414Z,4
2023-01-17T19:11:51.849Z,4
2023-01-17T19:14:18.749Z,4
2023-01-17T19:19:12.372Z,4
2023-01-17T19:21:39.272Z,4
2023-01-17T19:24:06.041Z,4
2023-01-17T19:26:32.964Z,4
2023-01-17T19:28:59.744Z,4
2023-01-17T19:31:26.570Z,4
2023-01-17T19:33:53.394Z,4
2023-01-17T19:36:20.235Z,4
2023-01-17T19:38:47.094Z,4
2023-01-17T19:41:13.929Z,3.9
2023-01-17T19:43:39.326Z,3.9
2023-01-17T19:46:06.180Z,3.9
2023-01-17T19:48:33.030Z,3.9
2023-01-17T19:50:59.850Z,3.9
2023-01-17T19:53:26.694Z,3.9
2023-01-17T19:55:52.139Z,3.9
2023-01-17T19:58:18.970Z,3.9
2023-01-17T20:00:45.819Z,3.9
2023-01-17T20:03:12.660Z,3.8
2023-01-17T20:05:39.493Z,3.8
2023-01-17T20:08:06.334Z,3.8
2023-01-17T20:10:33.195Z,3.8
2023-01-17T20:13:00.019Z,3.8
2023-01-17T20:15:26.845Z,3.8
2023-01-17T20:17:53.698Z,3.8
2023-01-17T20:20:20.540Z,3.7
2023-01-17T20:22:47.435Z,3.7
2023-01-17T20:25:14.275Z,3.7
2023-01-17T20:27:41.063Z,3.6
2023-01-17T20:30:07.963Z,3.5
2023-01-17T20:32:34.829Z,3.5
2023-01-17T20:35:00.189Z,3.5
2023-01-17T20:37:27.005Z,3.5
2023-01-17T20:39:53.838Z,3.5
2023-01-17T20:42:20.765Z,3.5
2023-01-17T20:44:47.560Z,3.5
2023-01-17T20:47:14.364Z,3.5
2023-01-17T20:49:41.248Z,3.4
2023-01-17T20:52:08.052Z,3.4
2023-01-17T20:54:34.884Z,3.4
2023-01-17T20:57:01.768Z,3.4
2023-01-17T20:59:28.733Z,3.4
2023-01-17T21:01:55.412Z,3.4
2023-01-17T21:04:22.292Z,3.4
2023-01-17T21:06:47.746Z,3.4
2023-01-17T21:09:14.581Z,3.5
2023-01-17T21:11:41.360Z,3.5
2023-01-17T21:14:08.220Z,3.4
2023-01-17T21:16:35.049Z,3.4
2023-01-17T21:19:01.911Z,3.5
2023-01-17T21:21:28.744Z,3.5
2023-01-17T21:23:55.562Z,3.4
2023-01-17T21:26:22.429Z,3.4
2023-01-17T21:28:49.227Z,3.3
2023-01-17T21:31:16.093Z,3.3
2023-01-17T21:33:43.226Z,3.3
2023-01-17T21:36:09.753Z,3.3
2023-01-17T21:38:36.618Z,3.3
2023-01-17T21:41:02.008Z,3.3
2023-01-17T21:43:28.827Z,3.3
2023-01-17T21:45:55.675Z,3.3
2023-01-17T21:48:22.499Z,3.3
2023-01-17T21:50:49.355Z,3.3
2023-01-17T21:53:16.174Z,3.3
2023-01-17T21:55:43.024Z,3.3
2023-01-17T21:58:09.865Z,3.3
2023-01-17T22:03:03.553Z,3.3
2023-01-17T22:05:30.384Z,3.3
2023-01-17T22:07:57.221Z,3.3
2023-01-17T22:10:24.072Z,3.3
2023-01-17T22:12:50.907Z,3.3
2023-01-17T22:15:16.320Z,3.3
2023-01-17T22:17:43.163Z,3.3
2023-01-17T22:20:10.044Z,3.3
2023-01-17T22:22:36.909Z,3.3
2023-01-17T22:25:03.688Z,3.2
2023-01-17T22:27:30.519Z,3.2
2023-01-17T22:29:57.371Z,3.2
2023-01-17T22:32:24.201Z,3.2
2023-01-17T22:34:51.072Z,3.2
2023-01-17T22:37:17.884Z,3.3
2023-01-17T22:39:44.729Z,3.3
2023-01-17T22:42:11.609Z,3.2
2023-01-17T22:44:38.436Z,3.2
2023-01-17T22:47:03.823Z,3.2
2023-01-17T22:49:30.676Z,3.2
2023-01-17T22:51:57.499Z,3.2
2023-01-17T22:54:24.339Z,3.3
2023-01-17T22:56:51.190Z,3.2
2023-01-17T22:59:18.041Z,3.3
2023-01-17T23:01:44.891Z,3.3
2023-01-17T23:04:11.721Z,3.3
2023-01-17T23:06:38.561Z,3.3
2023-01-17T23:09:05.390Z,3.3
2023-01-17T23:11:32.240Z,3.3
2023-01-17T23:13:59.072Z,3.3
2023-01-17T23:16:25.934Z,3.3
2023-01-17T23:18:52.769Z,3.2
2023-01-17T23:21:18.189Z,3.2
2023-01-17T23:23:45.016Z,3.2
2023-01-17T23:26:11.881Z,3.2
2023-01-17T23:28:38.708Z,3.2
2023-01-17T23:31:05.540Z,3.2
2023-01-17T23:33:32.389Z,3.2
2023-01-17T23:35:59.214Z,3.2
2023-01-17T23:38:26.069Z,3.2
2023-01-17T23:40:52.913Z,3.2
2023-01-17T23:43:19.754Z,3.2
2023-01-17T23:45:46.600Z,3.2
2023-01-17T23:48:13.442Z,3.2
2023-01-17T23:50:40.276Z,3.2
2023-01-17T23:53:05.694Z,3.2
2023-01-17T23:55:32.522Z,3.2
2023-01-17T23:57:59.359Z,3.2
